Regina International Airport
CYQR : now visible

Airfield :











YOU CAN JOIN US ON...

 
LOGIN :

Register | Disclaimer

   EN    FR    IT 

 









Legend :    VFR   Marginal VFR   IFR   Intensive IFR   Very Intensive IFR
Visi :
Ceiling :
>= 8 km
>= 3000ft
5 to 8 km
1000 to 3000 ft
1500m to 5 km
500 to 1000 ft
800 to 1500m
200 to 500 ft
< 800m
< 200 ft
Symbols :   Thunderstorms  Fog  Heavy snow  Heavy precipitations  Wind > 20 kt






- Airport Elevation : 1894 ft
- IATA code : YQR


CYQR - Regina International

CURRENT METAR :
  • 260500Z 30007KT 1 1/2SM BR VV003 M04/M04 A2980 RMK FG8 SLP127

EXPIRED METARs :
  • 260432Z 30008KT 1 1/2SM -FZDZ BR VV002 M04/M04 A2980 RMK FG8 ICE ON INDICATOR SLP126
  • 260400Z 30007KT 1SM R13/6000FT/N -FZDZ BR VV002 M04/M04 A2979 RMK FG8 SLP125
  • 260341Z 30008KT 1 1/4SM R13/5000VP6000FT/N -FZDZ BR VV002 M04/M04 A2979 RMK FG8 ICE ON INDICATOR VIS VRB 1-11/2 SLP125
  • 260336Z 30008KT 1SM R13/5000VP6000FT/D BR VV002 M04/M04 A2979 RMK FG8 SLP124
  • 260300Z 29006KT 2SM BR BKN005 OVC010 M04/M04 A2978 RMK SF6SC2 SLP121

TAF AMD TAF CYQR
Valid from the 26 at 03:00 until the 27 at 00:00 UTC


260346Z 2603/2624 30008KT 1SM -FZDZ BR VV002
TEMPO 2603/2617 3SM BR SCT002 OVC010
FM261700 36008KT P6SM BKN012 RMK NXT FCST BY 260600Z



MET'MAP, your aeronautical weather chart ! - Copyright ORBIFLY December 2007 - Disclaimer

ORBIFLY MET'MAP TEAM :

Programming & Development : Alexandra Zaïnal
Concept & original design : Baudouin d'Aumeries
Assistance for programming : Marc-Olivier Méhu
Technical & hardware support : Manuel Goepfert

Contact : metmap@orbifly.com




SOURCES & CREDITS :

   NOAA       Earth
Advisory